Аэропорт: Национальный аэропорт Минск. Минск

ICAO: UMMS

METAR:
2022-06-26 11:30:00
UMMS 261130Z 11002G05MPS CAVOK 27/15 Q1021 NOSIG
METAR:
2022-06-26 05:02:00
TAF UMMS 260502Z 2606/2706 12005G10MPS CAVOK TX29/2613Z TN14/2702Z BECMG 2618/2619 VRB02MPS 9999 SCT030 TEMPO 2619/2706 3000 BCFG BR SCT010